Time;durP1;ratioP1;P1;durP2;ratioP2;P2;SDS_P1;SDS_P2;PMS_P1;PMS_P2;Temp;Humidity;BMP_temperature;BMP_pressure;BME280_temperature;BME280_humidity;BME280_pressure;Samples;Min_cycle;Max_cycle;Signal;HPM_P1;HPM_P2
2021/10/05 00:00:03;;;;;;;;;;;23.00;52.70;;;;;;5026103;28;19980;-72
2021/10/05 00:02:30;;;;;;;;;;;23.00;52.70;;;;;;5016806;28;19988;-71
2021/10/05 00:04:57;;;;;;;;;;;23.00;52.70;;;;;;5030210;28;20369;-71
2021/10/05 00:07:24;;;;;;;;;;;23.00;52.70;;;;;;5029793;28;19956;-71
2021/10/05 00:09:51;;;;;;;;;;;23.00;52.70;;;;;;5025967;28;20016;-71
2021/10/05 00:12:18;;;;;;;;;;;23.00;52.70;;;;;;5022243;28;19979;-72
2021/10/05 00:14:45;;;;;;;;;;;23.00;52.70;;;;;;5029472;28;19929;-71
2021/10/05 00:17:12;;;;;;;;;;;23.00;52.70;;;;;;5029496;28;20059;-72
2021/10/05 00:19:39;;;;;;;;;;;23.00;52.70;;;;;;5026113;28;20048;-71
2021/10/05 00:22:06;;;;;;;;;;;23.00;52.70;;;;;;5022388;28;20413;-71
2021/10/05 00:24:33;;;;;;;;;;;23.00;52.70;;;;;;5028991;28;20028;-72
2021/10/05 00:26:59;;;;;;;;;;;23.00;52.70;;;;;;5029678;28;19987;-71
2021/10/05 00:29:26;;;;;;;;;;;23.00;52.70;;;;;;5029544;28;19925;-72
2021/10/05 00:31:53;;;;;;;;;;;23.00;52.70;;;;;;5020392;28;19939;-71
2021/10/05 00:34:20;;;;;;;;;;;23.00;52.70;;;;;;5029263;28;19983;-72
2021/10/05 00:36:47;;;;;;;;;;;23.00;52.70;;;;;;5028870;28;20029;-72
2021/10/05 00:39:14;;;;;;;;;;;23.00;52.70;;;;;;5028950;28;20180;-71
2021/10/05 00:41:41;;;;;;;;;;;22.90;53.20;;;;;;5020581;28;19925;-72
2021/10/05 00:44:08;;;;;;;;;;;23.00;52.60;;;;;;5029546;28;19979;-72
2021/10/05 00:46:35;;;;;;;;;;;22.90;52.60;;;;;;5028862;28;19999;-72
2021/10/05 00:49:02;;;;;;;;;;;22.90;52.60;;;;;;5029090;28;19948;-71
2021/10/05 00:51:30;;;;;;;;;;;22.90;52.60;;;;;;5010653;28;20225;-71
2021/10/05 00:53:57;;;;;;;;;;;22.90;52.60;;;;;;5028986;28;19984;-71
2021/10/05 00:56:24;;;;;;;;;;;22.90;52.60;;;;;;5028448;28;19925;-71
2021/10/05 00:58:51;;;;;;;;;;;22.90;52.60;;;;;;5028675;28;19964;-71
2021/10/05 01:01:18;;;;;;;;;;;22.90;52.60;;;;;;5017581;28;20301;-71
2021/10/05 01:03:45;;;;;;;;;;;22.90;52.60;;;;;;5019799;28;19997;-71
2021/10/05 01:06:12;;;;;;;;;;;22.90;52.60;;;;;;5028425;28;20047;-71
2021/10/05 01:08:39;;;;;;;;;;;22.90;52.60;;;;;;5026522;28;20404;-72
2021/10/05 01:11:06;;;;;;;;;;;22.90;52.60;;;;;;5018721;28;19929;-71
2021/10/05 01:13:33;;;;;;;;;;;22.90;52.50;;;;;;5028323;28;19933;-71
2021/10/05 01:16:00;;;;;;;;;;;22.90;52.50;;;;;;5018762;28;20011;-71
2021/10/05 01:18:27;;;;;;;;;;;22.90;52.50;;;;;;5028637;28;19929;-71
2021/10/05 01:20:56;;;;;;;;;;;22.90;52.50;;;;;;5022232;28;19979;-71
2021/10/05 01:23:23;;;;;;;;;;;22.90;52.50;;;;;;5026863;28;19929;-71
2021/10/05 01:25:50;;;;;;;;;;;22.90;52.50;;;;;;5029109;28;20023;-71
2021/10/05 01:28:18;;;;;;;;;;;22.90;52.50;;;;;;5023971;28;19952;-71
2021/10/05 01:30:45;;;;;;;;;;;22.90;52.40;;;;;;5015028;28;19925;-71
2021/10/05 01:33:13;;;;;;;;;;;22.90;52.50;;;;;;5025505;28;19936;-69
2021/10/05 01:35:40;;;;;;;;;;;22.90;52.50;;;;;;5022014;28;20353;-71
2021/10/05 01:38:07;;;;;;;;;;;22.90;52.60;;;;;;5027457;28;20465;-71
2021/10/05 01:40:34;;;;;;;;;;;22.90;52.60;;;;;;5023173;28;20029;-70
2021/10/05 01:43:02;;;;;;;;;;;22.90;52.60;;;;;;5024811;28;20349;-72
2021/10/05 01:45:30;;;;;;;;;;;22.90;53.20;;;;;;5028358;28;19929;-72
2021/10/05 01:47:57;;;;;;;;;;;22.90;52.70;;;;;;5027443;28;19937;-69
2021/10/05 01:50:25;;;;;;;;;;;22.90;52.70;;;;;;5024407;28;19940;-72
2021/10/05 01:52:53;;;;;;;;;;;22.90;52.70;;;;;;5024578;28;20027;-72
2021/10/05 01:55:21;;;;;;;;;;;22.90;52.70;;;;;;5025513;28;19925;-71
2021/10/05 01:57:48;;;;;;;;;;;22.90;52.60;;;;;;5027861;28;19929;-71
2021/10/05 02:00:15;;;;;;;;;;;22.90;52.60;;;;;;5024562;28;20019;-72
2021/10/05 02:02:42;;;;;;;;;;;22.80;52.60;;;;;;5023240;28;20182;-71
2021/10/05 02:05:09;;;;;;;;;;;22.90;52.60;;;;;;5028216;28;20522;-71
2021/10/05 02:07:37;;;;;;;;;;;22.90;52.60;;;;;;5027566;28;20020;-72
2021/10/05 02:10:08;;;;;;;;;;;22.90;52.60;;;;;;5024199;28;20390;-72
2021/10/05 02:12:35;;;;;;;;;;;22.90;52.60;;;;;;5014972;28;19967;-72
2021/10/05 02:15:03;;;;;;;;;;;22.90;52.60;;;;;;5027653;28;19980;-72
2021/10/05 02:17:30;;;;;;;;;;;22.90;52.60;;;;;;5027738;28;20356;-71
2021/10/05 02:19:57;;;;;;;;;;;22.90;52.60;;;;;;5019187;28;20023;-71
2021/10/05 02:22:23;;;;;;;;;;;22.90;52.50;;;;;;5022041;28;19983;-72
2021/10/05 02:24:50;;;;;;;;;;;22.90;52.50;;;;;;5027362;28;20593;-72
2021/10/05 02:27:19;;;;;;;;;;;22.80;52.50;;;;;;5027560;28;20023;-71
2021/10/05 02:29:46;;;;;;;;;;;22.80;52.50;;;;;;5024543;28;19925;-71
2021/10/05 02:32:13;;;;;;;;;;;22.80;52.50;;;;;;5022756;28;19929;-71
2021/10/05 02:34:41;;;;;;;;;;;22.80;52.50;;;;;;5024857;28;19925;-71
2021/10/05 02:37:08;;;;;;;;;;;22.80;52.50;;;;;;5026534;28;19972;-71
2021/10/05 02:39:35;;;;;;;;;;;22.80;52.50;;;;;;5026732;28;19951;-71
2021/10/05 02:42:03;;;;;;;;;;;22.80;52.50;;;;;;5017195;28;19929;-71
2021/10/05 02:44:30;;;;;;;;;;;22.80;52.50;;;;;;5026835;28;19992;-72
2021/10/05 02:46:57;;;;;;;;;;;22.80;52.50;;;;;;5027323;28;20009;-72
2021/10/05 02:49:24;;;;;;;;;;;22.80;52.40;;;;;;5026986;28;20397;-72
2021/10/05 02:51:51;;;;;;;;;;;22.80;52.40;;;;;;5018156;28;20044;-71
2021/10/05 02:54:18;;;;;;;;;;;22.80;52.40;;;;;;5027570;28;19929;-71
2021/10/05 02:56:45;;;;;;;;;;;22.80;52.40;;;;;;5031022;28;20388;-71
2021/10/05 02:59:14;;;;;;;;;;;22.80;52.40;;;;;;5030738;28;19936;-71
2021/10/05 03:01:41;;;;;;;;;;;22.80;52.30;;;;;;5018095;28;20328;-71
2021/10/05 03:04:08;;;;;;;;;;;22.80;52.30;;;;;;5030970;28;19983;-72
2021/10/05 03:06:35;;;;;;;;;;;22.90;52.40;;;;;;5030568;28;19925;-72
2021/10/05 03:09:03;;;;;;;;;;;22.90;52.30;;;;;;5030640;28;20048;-73
2021/10/05 03:11:30;;;;;;;;;;;22.90;52.30;;;;;;5022621;28;19929;-69
2021/10/05 03:13:57;;;;;;;;;;;22.80;52.20;;;;;;5031187;28;20437;-72
2021/10/05 03:16:23;;;;;;;;;;;22.80;52.20;;;;;;5021729;28;19929;-71
2021/10/05 03:18:50;;;;;;;;;;;22.80;52.30;;;;;;5031003;28;20547;-71
2021/10/05 03:21:19;;;;;;;;;;;22.80;52.40;;;;;;5014280;28;19925;-68
2021/10/05 03:23:46;;;;;;;;;;;22.80;52.40;;;;;;5030503;28;20012;-71
2021/10/05 03:26:13;;;;;;;;;;;22.80;52.40;;;;;;5029687;28;20012;-72
2021/10/05 03:28:40;;;;;;;;;;;22.80;52.50;;;;;;5024382;28;20024;-72
2021/10/05 03:31:07;;;;;;;;;;;22.80;52.50;;;;;;5020653;28;19929;-69
2021/10/05 03:33:34;;;;;;;;;;;22.80;52.50;;;;;;5028588;28;19972;-69
2021/10/05 03:36:01;;;;;;;;;;;22.80;52.50;;;;;;5033448;28;20279;-72
2021/10/05 03:38:28;;;;;;;;;;;22.80;52.50;;;;;;5033787;28;19992;-72
2021/10/05 03:40:55;;;;;;;;;;;22.70;52.50;;;;;;5027814;28;20012;-72
2021/10/05 03:43:23;;;;;;;;;;;22.80;52.50;;;;;;5020115;28;20155;-72
2021/10/05 03:45:50;;;;;;;;;;;22.70;52.50;;;;;;5032304;28;19925;-71
2021/10/05 03:48:17;;;;;;;;;;;22.80;52.50;;;;;;5031033;28;20579;-69
2021/10/05 03:50:44;;;;;;;;;;;22.70;52.50;;;;;;5028205;28;20380;-73
2021/10/05 03:53:16;;;;;;;;;;;22.70;52.50;;;;;;5034537;28;19955;-72
2021/10/05 03:55:44;;;;;;;;;;;22.70;52.40;;;;;;5030543;28;19931;-72
2021/10/05 03:58:11;;;;;;;;;;;22.70;52.40;;;;;;5029796;28;19932;-71
2021/10/05 04:00:38;;;;;;;;;;;22.70;52.40;;;;;;5025067;28;19932;-71
2021/10/05 04:03:05;;;;;;;;;;;22.70;52.40;;;;;;5028515;28;19931;-72
2021/10/05 04:05:33;;;;;;;;;;;22.70;52.90;;;;;;5028878;28;20003;-71
2021/10/05 04:08:01;;;;;;;;;;;22.70;52.40;;;;;;5028104;28;20305;-72
2021/10/05 04:10:28;;;;;;;;;;;22.70;52.40;;;;;;5024044;28;20022;-70
2021/10/05 04:12:56;;;;;;;;;;;22.70;52.40;;;;;;5027924;28;20468;-72
2021/10/05 04:15:23;;;;;;;;;;;22.70;52.90;;;;;;5029571;28;19971;-71
2021/10/05 04:17:50;;;;;;;;;;;22.70;52.30;;;;;;5029410;28;20378;-72
2021/10/05 04:20:17;;;;;;;;;;;22.70;52.30;;;;;;5023306;28;19979;-72
2021/10/05 04:22:44;;;;;;;;;;;22.70;52.40;;;;;;5022284;28;19925;-72
2021/10/05 04:25:11;;;;;;;;;;;22.70;52.30;;;;;;5028478;28;19925;-72
2021/10/05 04:27:38;;;;;;;;;;;22.70;52.30;;;;;;5028923;28;19972;-72
2021/10/05 04:30:07;;;;;;;;;;;22.70;52.30;;;;;;5022692;28;20282;-71
2021/10/05 04:32:34;;;;;;;;;;;22.70;52.30;;;;;;5016297;28;20367;-70
2021/10/05 04:35:01;;;;;;;;;;;22.70;52.30;;;;;;5027209;28;19958;-72
2021/10/05 04:37:29;;;;;;;;;;;22.70;52.20;;;;;;5025841;28;19925;-71
2021/10/05 04:39:55;;;;;;;;;;;22.70;52.20;;;;;;5024122;28;20361;-71
2021/10/05 04:42:24;;;;;;;;;;;22.70;52.20;;;;;;5023830;28;20229;-72
2021/10/05 04:44:51;;;;;;;;;;;22.70;52.20;;;;;;5028547;28;20394;-71
2021/10/05 04:47:18;;;;;;;;;;;22.70;52.20;;;;;;5028430;28;20376;-72
2021/10/05 04:49:46;;;;;;;;;;;22.70;52.10;;;;;;5023886;28;19956;-71
2021/10/05 04:52:13;;;;;;;;;;;22.70;52.10;;;;;;5024036;28;19925;-72
2021/10/05 04:54:39;;;;;;;;;;;22.80;52.10;;;;;;5027883;28;19929;-72
2021/10/05 04:57:06;;;;;;;;;;;22.80;52.10;;;;;;5025408;28;20055;-71
2021/10/05 04:59:33;;;;;;;;;;;22.80;52.00;;;;;;5027313;28;19925;-69
2021/10/05 05:02:00;;;;;;;;;;;22.80;52.00;;;;;;5017781;28;20265;-66
2021/10/05 05:04:29;;;;;;;;;;;22.80;51.90;;;;;;5027738;28;19981;-69
2021/10/05 05:06:56;;;;;;;;;;;22.80;51.90;;;;;;5029362;28;20055;-69
2021/10/05 05:09:23;;;;;;;;;;;22.80;51.80;;;;;;5027203;28;19931;-69
2021/10/05 05:11:49;;;;;;;;;;;22.80;51.60;;;;;;5015705;28;20404;-69
2021/10/05 05:14:18;;;;;;;;;;;22.80;51.50;;;;;;5022321;28;20329;-69
2021/10/05 05:16:47;;;;;;;;;;;22.80;51.40;;;;;;5026730;28;19975;-69
2021/10/05 05:19:14;;;;;;;;;;;22.80;51.30;;;;;;5028016;28;19925;-69
2021/10/05 05:21:59;;;;;;;;;;;22.80;51.30;;;;;;5010322;28;19922;-66
2021/10/05 05:24:27;;;;;;;;;;;22.80;51.20;;;;;;5022563;28;19933;-68
2021/10/05 05:26:54;;;;;;;;;;;22.80;51.20;;;;;;5014823;28;19976;-69
2021/10/05 05:29:21;;;;;;;;;;;22.80;51.20;;;;;;5017580;28;19933;-70
2021/10/05 05:31:48;;;;;;;;;;;22.80;51.30;;;;;;5013306;28;20011;-71
2021/10/05 05:34:15;;;;;;;;;;;22.80;51.30;;;;;;5019194;28;20015;-71
2021/10/05 05:36:42;;;;;;;;;;;22.80;51.30;;;;;;5016932;28;19932;-68
2021/10/05 05:39:09;;;;;;;;;;;22.80;51.30;;;;;;5020570;28;19964;-72
2021/10/05 05:42:08;;;;;;;;;;;22.80;51.30;;;;;;5012094;28;19925;-67
2021/10/05 05:44:35;;;;;;;;;;;22.80;51.20;;;;;;5027213;28;19925;-69
2021/10/05 05:47:03;;;;;;;;;;;22.90;51.10;;;;;;5021980;28;19957;-70
2021/10/05 05:49:30;;;;;;;;;;;22.90;50.80;;;;;;5015299;28;20019;-67
2021/10/05 05:52:32;;;;;;;;;;;22.90;50.50;;;;;;5011378;28;20026;-67
2021/10/05 05:55:02;;;;;;;;;;;22.90;50.20;;;;;;5010327;28;19933;-67
2021/10/05 05:57:31;;;;;;;;;;;22.90;50.00;;;;;;5015712;28;21794;-66
2021/10/05 05:59:58;;;;;;;;;;;22.90;49.90;;;;;;5017094;28;20019;-67
2021/10/05 06:02:46;;;;;;;;;;;22.90;49.80;;;;;;5008920;28;19933;-68
2021/10/05 06:05:14;;;;;;;;;;;22.90;49.80;;;;;;5013759;28;19928;-71
2021/10/05 06:07:41;;;;;;;;;;;22.90;49.70;;;;;;5022442;28;19941;-68
2021/10/05 06:13:42;;;;;;;;;;;22.90;49.50;;;;;;5009920;28;20019;-68
2021/10/05 06:16:09;;;;;;;;;;;23.00;49.70;;;;;;5014638;28;19943;-70
2021/10/05 06:18:36;;;;;;;;;;;23.00;49.80;;;;;;5023208;28;19933;-69
2021/10/05 06:21:23;;;;;;;;;;;23.00;49.80;;;;;;5010282;28;19925;-68
2021/10/05 06:23:53;;;;;;;;;;;23.00;49.90;;;;;;5011758;28;19927;-69
2021/10/05 06:26:19;;;;;;;;;;;23.00;49.90;;;;;;5019867;28;19933;-70
2021/10/05 06:28:49;;;;;;;;;;;23.00;49.80;;;;;;5025218;28;19967;-70
2021/10/05 06:31:18;;;;;;;;;;;23.10;49.90;;;;;;5018354;28;20054;-72
2021/10/05 06:33:45;;;;;;;;;;;23.10;50.00;;;;;;5020592;28;19933;-71
2021/10/05 06:36:13;;;;;;;;;;;23.10;49.90;;;;;;5012716;28;19921;-72
2021/10/05 06:38:41;;;;;;;;;;;23.20;49.90;;;;;;5018570;28;20024;-72
2021/10/05 06:41:31;;;;;;;;;;;23.20;49.90;;;;;;5014352;28;20809;-72
2021/10/05 06:44:01;;;;;;;;;;;23.20;49.90;;;;;;5008770;28;20043;-71
2021/10/05 06:46:28;;;;;;;;;;;23.20;49.90;;;;;;5019158;28;20016;-75
2021/10/05 06:48:55;;;;;;;;;;;23.20;49.80;;;;;;5022644;28;19932;-70
2021/10/05 06:51:23;;;;;;;;;;;23.30;49.80;;;;;;5014229;28;19933;-64
2021/10/05 06:53:50;;;;;;;;;;;23.30;49.80;;;;;;5015304;28;19961;-71
2021/10/05 06:56:17;;;;;;;;;;;23.30;49.70;;;;;;5021279;28;19929;-71
2021/10/05 06:58:44;;;;;;;;;;;23.30;49.70;;;;;;5023517;28;19976;-69
2021/10/05 07:01:35;;;;;;;;;;;23.40;49.70;;;;;;5015208;28;19933;-69
2021/10/05 07:04:11;;;;;;;;;;;23.40;49.60;;;;;;5010569;28;19933;-71
2021/10/05 07:06:38;;;;;;;;;;;23.40;49.50;;;;;;5017283;28;19976;-70
2021/10/05 07:09:06;;;;;;;;;;;23.50;49.60;;;;;;5019703;28;19965;-67
2021/10/05 07:11:55;;;;;;;;;;;23.50;49.50;;;;;;5010601;28;19920;-67
2021/10/05 07:14:26;;;;;;;;;;;23.50;49.30;;;;;;5016536;28;19993;-70
2021/10/05 07:16:53;;;;;;;;;;;23.50;49.20;;;;;;5025504;28;19925;-70
2021/10/05 07:19:24;;;;;;;;;;;23.60;49.20;;;;;;5020017;28;19925;-73
2021/10/05 07:22:00;;;;;;;;;;;23.60;49.20;;;;;;4993813;28;20051;-71
2021/10/05 07:24:27;;;;;;;;;;;23.60;49.20;;;;;;5013467;28;19929;-72
2021/10/05 07:26:54;;;;;;;;;;;23.70;49.10;;;;;;5021966;28;20318;-70
2021/10/05 07:29:21;;;;;;;;;;;23.70;49.10;;;;;;5017198;28;19925;-69
2021/10/05 07:32:10;;;;;;;;;;;23.70;49.00;;;;;;5011654;28;19933;-71
2021/10/05 07:34:39;;;;;;;;;;;23.80;49.00;;;;;;5014230;28;19933;-69
2021/10/05 07:37:06;;;;;;;;;;;23.80;48.90;;;;;;5016068;28;19933;-70
2021/10/05 07:39:34;;;;;;;;;;;23.80;48.80;;;;;;5013731;28;20027;-73
2021/10/05 07:42:13;;;;;;;;;;;23.80;48.80;;;;;;5013667;28;19970;-69
2021/10/05 07:44:40;;;;;;;;;;;23.90;48.70;;;;;;5017292;28;20457;-71
2021/10/05 07:47:07;;;;;;;;;;;23.90;48.70;;;;;;5017871;28;19964;-72
2021/10/05 07:49:36;;;;;;;;;;;23.90;48.70;;;;;;5022337;28;20039;-70
2021/10/05 07:52:04;;;;;;;;;;;24.00;48.60;;;;;;5017974;28;19933;-72
2021/10/05 07:54:31;;;;;;;;;;;24.00;48.60;;;;;;5029571;28;20532;-72
2021/10/05 07:56:58;;;;;;;;;;;24.00;48.60;;;;;;5033500;28;19925;-71
2021/10/05 07:59:25;;;;;;;;;;;24.00;48.60;;;;;;5037227;28;19925;-71
2021/10/05 08:01:54;;;;;;;;;;;24.10;48.70;;;;;;5037893;28;20004;-72
2021/10/05 08:04:21;;;;;;;;;;;24.10;48.70;;;;;;5039036;28;20444;-75
2021/10/05 08:06:48;;;;;;;;;;;24.10;48.70;;;;;;5038898;28;19976;-73
2021/10/05 08:09:15;;;;;;;;;;;24.10;48.70;;;;;;5037742;28;20364;-73
2021/10/05 08:11:42;;;;;;;;;;;24.10;48.70;;;;;;5037725;28;19972;-75
2021/10/05 08:14:10;;;;;;;;;;;24.20;48.60;;;;;;5030902;28;19993;-73
2021/10/05 08:16:37;;;;;;;;;;;24.20;48.60;;;;;;5038429;28;20028;-76
2021/10/05 08:19:04;;;;;;;;;;;24.30;48.50;;;;;;5026343;28;19979;-72
2021/10/05 08:21:31;;;;;;;;;;;24.30;48.50;;;;;;5018472;28;20470;-68
2021/10/05 08:24:12;;;;;;;;;;;24.30;48.40;;;;;;5012301;28;20147;-68
2021/10/05 08:26:39;;;;;;;;;;;24.30;48.30;;;;;;5016942;28;19935;-74
2021/10/05 08:29:06;;;;;;;;;;;24.40;48.20;;;;;;5020357;28;19939;-70
2021/10/05 08:34:50;;;;;;;;;;;24.40;48.10;;;;;;5018347;28;19973;-74
2021/10/05 08:37:17;;;;;;;;;;;24.40;48.00;;;;;;5027586;28;19925;-72
2021/10/05 08:39:44;;;;;;;;;;;24.50;48.00;;;;;;5024870;28;20448;-70
2021/10/05 08:42:11;;;;;;;;;;;24.50;47.90;;;;;;5018441;28;19925;-71
2021/10/05 08:44:39;;;;;;;;;;;24.50;47.90;;;;;;5014732;28;19947;-67
2021/10/05 08:47:06;;;;;;;;;;;24.50;47.60;;;;;;5018906;28;19933;-66
2021/10/05 08:49:33;;;;;;;;;;;24.60;47.30;;;;;;5021492;28;20011;-70
2021/10/05 08:52:08;;;;;;;;;;;24.60;47.00;;;;;;5013699;28;19937;-70
2021/10/05 08:54:38;;;;;;;;;;;24.60;46.70;;;;;;5014376;28;19925;-69
2021/10/05 08:57:06;;;;;;;;;;;24.60;46.60;;;;;;5018627;28;19963;-73
2021/10/05 08:59:33;;;;;;;;;;;24.70;46.30;;;;;;5020472;28;20381;-73
2021/10/05 09:02:20;;;;;;;;;;;24.70;46.10;;;;;;5014098;28;20681;-69
2021/10/05 09:04:54;;;;;;;;;;;24.70;46.10;;;;;;5009157;28;19933;-71
2021/10/05 09:07:23;;;;;;;;;;;24.70;46.00;;;;;;5017996;28;19990;-70
2021/10/05 09:09:54;;;;;;;;;;;24.70;46.10;;;;;;5017844;28;20388;-70
2021/10/05 09:12:36;;;;;;;;;;;24.80;46.00;;;;;;5009814;28;19980;-74
2021/10/05 09:15:06;;;;;;;;;;;24.80;45.70;;;;;;5010260;28;19944;-71
2021/10/05 09:17:33;;;;;;;;;;;24.80;45.50;;;;;;5011941;28;19964;-71
2021/10/05 09:20:00;;;;;;;;;;;24.90;45.40;;;;;;5014778;28;20655;-74
2021/10/05 09:22:29;;;;;;;;;;;24.90;45.20;;;;;;5010856;28;19959;-68
2021/10/05 09:24:57;;;;;;;;;;;24.90;45.10;;;;;;5010376;28;19939;-73
2021/10/05 09:27:25;;;;;;;;;;;24.90;45.00;;;;;;5017012;28;19931;-70
2021/10/05 09:29:53;;;;;;;;;;;24.90;45.30;;;;;;5012620;28;19925;-62
2021/10/05 09:32:25;;;;;;;;;;;24.90;45.30;;;;;;5009963;28;19929;-71
2021/10/05 09:34:54;;;;;;;;;;;25.00;45.20;;;;;;5016075;28;19933;-67
2021/10/05 09:37:32;;;;;;;;;;;25.00;45.00;;;;;;5019752;28;20389;-68
2021/10/05 09:40:01;;;;;;;;;;;25.00;44.90;;;;;;5016293;28;19984;-70
2021/10/05 09:42:30;;;;;;;;;;;25.00;44.70;;;;;;5027975;28;20614;-73
2021/10/05 09:44:59;;;;;;;;;;;25.00;44.90;;;;;;5019001;28;19933;-71
2021/10/05 09:47:47;;;;;;;;;;;25.10;45.00;;;;;;5004273;28;20056;-73
2021/10/05 09:50:32;;;;;;;;;;;25.10;44.80;;;;;;5022292;28;19943;-75
2021/10/05 09:53:05;;;;;;;;;;;25.10;44.60;;;;;;5013045;28;20341;-75
2021/10/05 09:55:34;;;;;;;;;;;25.10;44.50;;;;;;5022298;28;20021;-76
2021/10/05 09:58:02;;;;;;;;;;;25.10;44.40;;;;;;5020217;28;19967;-76
2021/10/05 10:00:31;;;;;;;;;;;25.10;44.50;;;;;;5017208;28;20040;-74
2021/10/05 10:02:58;;;;;;;;;;;25.20;44.40;;;;;;5013994;28;20017;-72
2021/10/05 10:05:27;;;;;;;;;;;25.20;44.40;;;;;;5021231;28;19925;-70
2021/10/05 10:07:55;;;;;;;;;;;25.20;44.30;;;;;;5020565;28;19948;-76
2021/10/05 10:11:08;;;;;;;;;;;25.20;44.30;;;;;;5022267;28;20542;-74
2021/10/05 10:14:12;;;;;;;;;;;25.20;44.20;;;;;;5017894;28;19926;-77
2021/10/05 10:16:39;;;;;;;;;;;25.20;44.00;;;;;;5016703;28;19929;-75
2021/10/05 10:19:06;;;;;;;;;;;25.20;43.90;;;;;;5015779;28;20012;-75
2021/10/05 10:21:34;;;;;;;;;;;25.30;44.00;;;;;;5016617;28;20016;-74
2021/10/05 10:24:13;;;;;;;;;;;25.30;43.90;;;;;;5016965;28;19965;-75
2021/10/05 10:26:44;;;;;;;;;;;25.30;43.70;;;;;;5016517;28;20390;-71
2021/10/05 10:29:31;;;;;;;;;;;25.30;43.80;;;;;;5016876;28;19929;-75
2021/10/05 10:32:07;;;;;;;;;;;25.40;43.50;;;;;;5016973;28;20404;-75
2021/10/05 10:34:34;;;;;;;;;;;25.40;43.70;;;;;;5015249;28;20301;-73
2021/10/05 10:37:08;;;;;;;;;;;25.40;43.50;;;;;;5016708;28;20044;-70
2021/10/05 10:39:38;;;;;;;;;;;25.40;43.50;;;;;;5016468;28;19960;-74
2021/10/05 10:42:06;;;;;;;;;;;25.40;43.50;;;;;;5006132;28;19952;-72
2021/10/05 10:44:37;;;;;;;;;;;25.40;43.40;;;;;;5009750;28;19932;-72
2021/10/05 10:47:11;;;;;;;;;;;25.40;43.20;;;;;;5015964;28;19964;-72
2021/10/05 10:49:39;;;;;;;;;;;25.50;43.30;;;;;;5020694;28;19977;-71
2021/10/05 10:52:21;;;;;;;;;;;25.50;43.50;;;;;;5013522;28;19933;-69
2021/10/05 10:54:57;;;;;;;;;;;25.50;43.60;;;;;;5020725;28;20012;-74
2021/10/05 10:57:35;;;;;;;;;;;25.50;43.60;;;;;;5022891;28;20028;-73
2021/10/05 11:00:25;;;;;;;;;;;25.50;43.20;;;;;;5013284;28;20023;-76
2021/10/05 11:02:55;;;;;;;;;;;25.60;43.00;;;;;;5013731;28;19933;-73
2021/10/05 11:05:24;;;;;;;;;;;25.60;42.80;;;;;;5016326;28;19933;-72
2021/10/05 11:07:52;;;;;;;;;;;25.60;41.80;;;;;;5018546;28;20055;-73
2021/10/05 11:10:28;;;;;;;;;;;25.70;41.70;;;;;;5020614;28;19925;-75
2021/10/05 11:12:56;;;;;;;;;;;25.70;41.60;;;;;;5011350;28;19968;-74
2021/10/05 11:15:39;;;;;;;;;;;25.70;41.60;;;;;;5028406;28;19936;-71
2021/10/05 11:18:08;;;;;;;;;;;25.70;41.10;;;;;;5024899;28;19933;-75
2021/10/05 11:20:37;;;;;;;;;;;25.70;40.60;;;;;;5025474;28;20406;-74
2021/10/05 11:23:04;;;;;;;;;;;25.70;40.00;;;;;;5040930;28;19976;-76
2021/10/05 11:25:31;;;;;;;;;;;25.70;40.30;;;;;;5055678;28;19940;-74
2021/10/05 11:28:09;;;;;;;;;;;25.70;40.90;;;;;;5040518;28;19972;-76
2021/10/05 11:30:59;;;;;;;;;;;25.70;40.20;;;;;;5040299;28;20024;-76
2021/10/05 11:33:37;;;;;;;;;;;25.70;40.00;;;;;;5011878;28;20430;-65
2021/10/05 11:36:12;;;;;;;;;;;25.70;39.90;;;;;;5024444;28;19925;-69
2021/10/05 11:38:41;;;;;;;;;;;25.70;40.00;;;;;;5027678;28;20492;-74
2021/10/05 11:41:45;;;;;;;;;;;25.70;39.90;;;;;;5017557;28;19984;-69
2021/10/05 11:44:45;;;;;;;;;;;25.70;39.90;;;;;;5022997;28;19971;-76
2021/10/05 11:47:13;;;;;;;;;;;25.80;40.20;;;;;;5040900;28;20012;-70
2021/10/05 11:49:42;;;;;;;;;;;25.80;40.30;;;;;;5040945;28;19925;-70
2021/10/05 11:52:10;;;;;;;;;;;25.80;40.60;;;;;;5040489;28;20349;-70
2021/10/05 11:54:37;;;;;;;;;;;25.90;40.70;;;;;;5040924;28;19932;-74
2021/10/05 11:57:09;;;;;;;;;;;25.90;40.70;;;;;;5042323;28;19976;-75
2021/10/05 11:59:36;;;;;;;;;;;26.00;40.70;;;;;;5039838;28;19925;-73
2021/10/05 12:02:41;;;;;;;;;;;26.00;40.40;;;;;;5030150;28;19940;-74
2021/10/05 12:05:25;;;;;;;;;;;26.00;40.20;;;;;;5011638;28;19969;-73
2021/10/05 12:07:52;;;;;;;;;;;26.00;40.30;;;;;;5018551;28;20536;-73
2021/10/05 12:10:19;;;;;;;;;;;26.00;40.20;;;;;;5014961;28;19932;-69
2021/10/05 12:12:46;;;;;;;;;;;26.00;40.80;;;;;;5019015;28;19921;-67
2021/10/05 12:15:20;;;;;;;;;;;26.00;40.10;;;;;;5019452;28;19944;-73
2021/10/05 12:18:06;;;;;;;;;;;26.10;40.30;;;;;;5028128;28;19933;-72
2021/10/05 12:21:16;;;;;;;;;;;26.10;40.40;;;;;;5022599;28;21661;-68
2021/10/05 12:23:50;;;;;;;;;;;26.10;40.20;;;;;;5016354;28;19933;-70
2021/10/05 12:26:17;;;;;;;;;;;26.20;40.20;;;;;;5025857;28;20049;-72
2021/10/05 12:28:56;;;;;;;;;;;26.20;40.00;;;;;;5026434;28;19953;-74
2021/10/05 12:31:58;;;;;;;;;;;26.20;39.90;;;;;;4999192;28;20278;-72
2021/10/05 12:34:33;;;;;;;;;;;26.20;39.80;;;;;;5020738;28;19933;-73
2021/10/05 12:37:02;;;;;;;;;;;26.20;39.80;;;;;;5013688;28;19968;-71
2021/10/05 12:43:12;;;;;;;;;;;26.20;40.20;;;;;;5027544;28;19925;-74
2021/10/05 12:45:39;;;;;;;;;;;26.30;40.20;;;;;;5040228;28;19925;-75
2021/10/05 12:48:07;;;;;;;;;;;26.30;40.00;;;;;;5035394;28;20236;-73
2021/10/05 12:50:43;;;;;;;;;;;26.30;39.90;;;;;;5028532;28;19921;-73
2021/10/05 12:53:10;;;;;;;;;;;26.30;39.80;;;;;;5031242;28;20020;-73
2021/10/05 12:55:37;;;;;;;;;;;26.40;39.60;;;;;;5027610;28;20019;-68
2021/10/05 12:58:05;;;;;;;;;;;26.40;39.60;;;;;;5026743;28;20016;-72
2021/10/05 13:00:33;;;;;;;;;;;26.40;39.60;;;;;;5020065;28;20649;-71
2021/10/05 13:03:01;;;;;;;;;;;26.40;39.50;;;;;;5017489;28;19933;-76
2021/10/05 13:05:30;;;;;;;;;;;26.40;39.60;;;;;;5019632;28;19948;-77
2021/10/05 13:07:59;;;;;;;;;;;26.40;39.50;;;;;;5024824;28;20357;-75
2021/10/05 13:11:05;;;;;;;;;;;26.40;39.40;;;;;;5020956;28;20028;-74
2021/10/05 13:14:17;;;;;;;;;;;26.40;39.50;;;;;;5030484;28;20004;-75
2021/10/05 13:17:17;;;;;;;;;;;26.40;39.00;;;;;;5026391;28;19921;-72
2021/10/05 13:19:44;;;;;;;;;;;26.40;38.90;;;;;;5025637;28;20016;-71
2021/10/05 13:26:03;;;;;;;;;;;26.50;38.80;;;;;;5031812;28;20020;-68
2021/10/05 13:31:54;;;;;;;;;;;26.50;39.20;;;;;;5040206;28;19924;-66
2021/10/05 13:34:21;;;;;;;;;;;26.50;38.90;;;;;;5039316;28;20022;-68
2021/10/05 13:36:48;;;;;;;;;;;26.50;38.90;;;;;;5038102;28;19925;-69
2021/10/05 13:39:18;;;;;;;;;;;26.50;39.10;;;;;;5040185;28;19976;-77
2021/10/05 13:41:45;;;;;;;;;;;26.50;39.20;;;;;;5039087;28;20286;-76
2021/10/05 13:44:12;;;;;;;;;;;26.60;39.30;;;;;;5040919;28;19932;-72
2021/10/05 13:46:39;;;;;;;;;;;26.50;39.30;;;;;;5040189;28;19925;-77
2021/10/05 13:49:06;;;;;;;;;;;26.50;39.30;;;;;;5039653;28;19925;-67
2021/10/05 13:51:32;;;;;;;;;;;26.60;39.50;;;;;;5039489;28;19940;-71
2021/10/05 13:53:59;;;;;;;;;;;26.60;39.50;;;;;;5039227;28;20388;-70
2021/10/05 13:56:27;;;;;;;;;;;26.60;39.50;;;;;;5038132;28;19964;-69
2021/10/05 13:58:57;;;;;;;;;;;26.60;39.40;;;;;;5037975;28;19972;-70
2021/10/05 14:01:25;;;;;;;;;;;26.60;39.40;;;;;;5037546;28;19968;-71
2021/10/05 14:03:53;;;;;;;;;;;26.60;39.60;;;;;;5020901;28;19940;-69
2021/10/05 14:06:20;;;;;;;;;;;26.60;39.60;;;;;;5025523;28;20014;-67
2021/10/05 14:08:47;;;;;;;;;;;26.60;39.60;;;;;;5024525;28;19978;-72
2021/10/05 14:14:33;;;;;;;;;;;26.60;39.70;;;;;;5010275;28;19976;-70
2021/10/05 14:17:00;;;;;;;;;;;26.50;39.60;;;;;;5020643;28;19936;-72
2021/10/05 14:19:27;;;;;;;;;;;26.60;39.70;;;;;;5024519;28;19972;-73
2021/10/05 14:21:57;;;;;;;;;;;26.50;39.70;;;;;;5014385;28;19928;-70
2021/10/05 14:24:25;;;;;;;;;;;26.50;39.80;;;;;;5016603;28;19926;-73
2021/10/05 14:26:52;;;;;;;;;;;26.50;39.90;;;;;;5024353;28;20408;-74
2021/10/05 14:29:19;;;;;;;;;;;26.60;39.90;;;;;;5025300;28;19925;-72
2021/10/05 14:31:50;;;;;;;;;;;26.60;40.00;;;;;;5016552;28;20374;-67
2021/10/05 14:34:17;;;;;;;;;;;26.60;39.90;;;;;;5018095;28;20420;-68
2021/10/05 14:36:45;;;;;;;;;;;26.60;40.00;;;;;;5020314;28;20320;-70
2021/10/05 14:39:12;;;;;;;;;;;26.60;40.00;;;;;;5023283;28;19964;-69
2021/10/05 14:41:39;;;;;;;;;;;26.60;40.00;;;;;;5012844;28;19933;-69
2021/10/05 14:44:06;;;;;;;;;;;26.60;40.10;;;;;;5034120;28;20393;-71
2021/10/05 14:46:33;;;;;;;;;;;26.50;40.10;;;;;;5047750;28;20437;-71
2021/10/05 14:49:01;;;;;;;;;;;26.50;40.20;;;;;;5047686;28;19924;-70
2021/10/05 14:51:33;;;;;;;;;;;26.50;40.20;;;;;;5028555;28;19921;-69
2021/10/05 14:54:00;;;;;;;;;;;26.50;40.20;;;;;;5026927;28;20636;-72